Time;durP1;ratioP1;P1;durP2;ratioP2;P2;SDS_P1;SDS_P2;PMS_P1;PMS_P2;Temp;Humidity;BMP_temperature;BMP_pressure;BME280_temperature;BME280_humidity;BME280_pressure;Samples;Min_cycle;Max_cycle;Signal;HPM_P1;HPM_P2
2023/12/19 00:00:51;;;;;;;0.00;0.00;;;8.40;75.30;;;;;;4796299;29;20696;-29
2023/12/19 00:03:24;;;;;;;0.00;0.00;;;8.40;75.30;;;;;;4796698;29;20269;-32
2023/12/19 00:05:52;;;;;;;0.00;0.00;;;8.40;75.30;;;;;;4796756;29;20619;-38
2023/12/19 00:08:21;;;;;;;0.00;0.00;;;8.40;75.40;;;;;;4796790;29;20600;-34
2023/12/19 00:10:48;;;;;;;0.00;0.00;;;8.40;75.40;;;;;;4796818;29;20625;-29
2023/12/19 00:13:16;;;;;;;0.00;0.00;;;8.40;75.40;;;;;;4797033;29;20295;-31
2023/12/19 00:15:46;;;;;;;0.00;0.00;;;8.40;75.50;;;;;;4800768;29;20205;-32
2023/12/19 00:18:18;;;;;;;0.00;0.00;;;8.40;75.40;;;;;;4801626;29;20236;-31
2023/12/19 00:20:52;;;;;;;0.00;0.00;;;8.40;75.40;;;;;;4800212;29;20205;-20
2023/12/19 00:23:22;;;;;;;0.00;0.00;;;8.40;75.30;;;;;;4800464;29;20563;-20
2023/12/19 00:25:54;;;;;;;0.00;0.00;;;8.40;75.30;;;;;;4801239;29;20232;-20
2023/12/19 00:28:21;;;;;;;0.00;0.00;;;8.40;75.40;;;;;;4798933;29;20224;-20
2023/12/19 00:30:48;;;;;;;0.00;0.00;;;8.40;75.40;;;;;;4799152;29;20208;-21
2023/12/19 00:33:16;;;;;;;0.00;0.00;;;8.50;75.40;;;;;;4798593;29;20208;-22
2023/12/19 00:35:45;;;;;;;0.00;0.00;;;8.50;75.50;;;;;;4797998;29;20633;-22
2023/12/19 00:38:20;;;;;;;0.00;0.00;;;8.50;75.50;;;;;;4798367;29;20213;-22
2023/12/19 00:40:48;;;;;;;0.00;0.00;;;8.50;75.50;;;;;;4797803;29;20212;-22
2023/12/19 00:43:15;;;;;;;0.00;0.00;;;8.50;75.50;;;;;;4797876;29;20217;-22
2023/12/19 00:45:42;;;;;;;0.00;0.00;;;8.50;75.50;;;;;;4795917;29;20584;-22
2023/12/19 00:48:10;;;;;;;0.00;0.00;;;8.50;75.60;;;;;;4798191;29;20684;-22
2023/12/19 00:50:37;;;;;;;0.00;0.00;;;8.50;75.50;;;;;;4798092;29;20220;-22
2023/12/19 00:53:07;;;;;;;0.00;0.00;;;8.50;75.40;;;;;;4796254;29;20263;-22
2023/12/19 00:55:36;;;;;;;0.00;0.00;;;8.50;75.50;;;;;;4796234;29;20289;-22
2023/12/19 00:58:06;;;;;;;0.00;0.00;;;8.50;75.40;;;;;;4797554;29;20205;-21
2023/12/19 01:00:38;;;;;;;0.00;0.00;;;8.50;75.50;;;;;;4796979;29;20707;-22
2023/12/19 01:03:08;;;;;;;0.00;0.00;;;8.50;75.50;;;;;;4781012;29;20317;-22
2023/12/19 01:05:38;;;;;;;0.00;0.00;;;8.50;75.50;;;;;;4797836;29;20209;-22
2023/12/19 01:08:08;;;;;;;0.00;0.00;;;8.50;76.30;;;;;;4798759;29;20213;-20
2023/12/19 01:10:37;;;;;;;0.00;0.00;;;8.50;75.60;;;;;;4799421;29;20217;-22
2023/12/19 01:13:07;;;;;;;0.00;0.00;;;8.50;75.60;;;;;;4799625;29;20679;-22
2023/12/19 01:15:34;;;;;;;0.00;0.00;;;8.50;75.60;;;;;;4800035;29;20209;-22
2023/12/19 01:18:06;;;;;;;0.00;0.00;;;8.50;75.60;;;;;;4801218;29;20236;-22
2023/12/19 01:20:38;;;;;;;0.00;0.00;;;8.50;75.60;;;;;;4800683;29;20225;-22
2023/12/19 01:23:06;;;;;;;0.00;0.00;;;8.50;75.70;;;;;;4801521;29;20209;-22
2023/12/19 01:25:37;;;;;;;0.00;0.00;;;8.60;75.70;;;;;;4799243;29;20692;-20
2023/12/19 01:28:05;;;;;;;0.00;0.00;;;8.60;75.70;;;;;;4801038;29;20304;-22
2023/12/19 01:30:41;;;;;;;0.00;0.00;;;8.60;75.60;;;;;;4798819;29;20257;-22
2023/12/19 01:33:13;;;;;;;0.00;0.00;;;8.60;75.60;;;;;;4799458;29;20204;-22
2023/12/19 01:35:41;;;;;;;0.00;0.00;;;8.60;75.50;;;;;;4800720;29;20668;-22
2023/12/19 01:38:14;;;;;;;0.00;0.00;;;8.60;75.50;;;;;;4799513;29;20213;-22
2023/12/19 01:40:41;;;;;;;0.00;0.00;;;8.60;75.60;;;;;;4799322;29;20749;-22
2023/12/19 01:43:18;;;;;;;0.00;0.00;;;8.60;75.60;;;;;;4799338;29;20232;-22
2023/12/19 01:45:51;;;;;;;0.00;0.00;;;8.60;75.70;;;;;;4799789;29;20216;-22
2023/12/19 01:48:25;;;;;;;0.00;0.00;;;8.60;75.70;;;;;;4800636;29;20216;-22
2023/12/19 01:50:52;;;;;;;0.00;0.00;;;8.60;75.70;;;;;;4800590;29;20216;-22
2023/12/19 01:53:23;;;;;;;0.00;0.00;;;8.60;75.70;;;;;;4798989;29;20209;-21
2023/12/19 01:55:53;;;;;;;0.00;0.00;;;8.60;75.70;;;;;;4800030;29;20726;-21
2023/12/19 01:58:27;;;;;;;0.00;0.00;;;8.60;75.70;;;;;;4800475;29;20948;-21
2023/12/19 02:00:57;;;;;;;0.00;0.00;;;8.60;75.70;;;;;;4801464;29;20212;-21
2023/12/19 02:03:25;;;;;;;0.00;0.00;;;8.60;75.70;;;;;;4786901;29;20209;-21
2023/12/19 02:05:53;;;;;;;0.00;0.00;;;8.60;75.70;;;;;;4801912;29;20228;-21
2023/12/19 02:08:21;;;;;;;0.00;0.00;;;8.60;75.70;;;;;;4803428;29;20215;-21
2023/12/19 02:10:48;;;;;;;0.00;0.00;;;8.60;75.70;;;;;;4783658;29;21084;-21
2023/12/19 02:13:19;;;;;;;0.00;0.00;;;8.60;75.60;;;;;;4801458;29;20220;-22
2023/12/19 02:15:51;;;;;;;0.00;0.00;;;8.60;75.60;;;;;;4801233;29;20843;-22
2023/12/19 02:18:24;;;;;;;0.00;0.00;;;8.60;75.60;;;;;;4801688;29;20664;-22
2023/12/19 02:20:53;;;;;;;0.00;0.00;;;8.60;75.60;;;;;;4801673;29;20229;-21
2023/12/19 02:23:23;;;;;;;0.00;0.00;;;8.60;75.60;;;;;;4803119;29;20209;-22
2023/12/19 02:25:51;;;;;;;0.00;0.00;;;8.60;75.60;;;;;;4801779;29;20219;-21
2023/12/19 02:28:18;;;;;;;0.00;0.00;;;8.60;75.70;;;;;;4800140;29;20217;-21
2023/12/19 02:30:46;;;;;;;0.00;0.00;;;8.60;75.70;;;;;;4799527;29;20221;-21
2023/12/19 02:33:13;;;;;;;0.00;0.00;;;8.60;75.70;;;;;;4799416;29;20693;-22
2023/12/19 02:35:40;;;;;;;0.00;0.00;;;8.60;75.70;;;;;;4801797;29;21013;-21
2023/12/19 02:38:08;;;;;;;0.00;0.00;;;8.60;75.70;;;;;;4801503;29;20221;-21
2023/12/19 02:40:39;;;;;;;0.00;0.00;;;8.60;75.70;;;;;;4798143;29;20597;-21
2023/12/19 02:43:09;;;;;;;0.00;0.00;;;8.60;75.80;;;;;;4800098;29;20216;-21
2023/12/19 02:45:42;;;;;;;0.00;0.00;;;8.60;75.80;;;;;;4799107;29;20213;-22
2023/12/19 02:48:11;;;;;;;0.00;0.00;;;8.60;75.80;;;;;;4797932;29;20693;-22
2023/12/19 02:50:43;;;;;;;0.00;0.00;;;8.60;75.80;;;;;;4799443;29;20311;-21
2023/12/19 02:53:13;;;;;;;0.00;0.00;;;8.60;75.90;;;;;;4799640;29;20216;-22
2023/12/19 02:55:42;;;;;;;0.00;0.00;;;8.60;75.80;;;;;;4798581;29;20296;-21
2023/12/19 02:58:09;;;;;;;0.00;0.00;;;8.60;75.90;;;;;;4797649;29;20213;-21
2023/12/19 03:00:39;;;;;;;0.00;0.00;;;8.60;75.80;;;;;;4785766;29;20220;-26
2023/12/19 03:03:06;;;;;;;0.00;0.00;;;8.60;75.80;;;;;;4801345;29;20213;-22
2023/12/19 03:05:37;;;;;;;0.00;0.00;;;8.60;75.90;;;;;;4801647;29;20319;-21
2023/12/19 03:08:04;;;;;;;0.00;0.00;;;8.60;75.80;;;;;;4799409;29;20317;-22
2023/12/19 03:10:33;;;;;;;0.00;0.00;;;8.60;75.80;;;;;;4798963;29;20236;-22
2023/12/19 03:13:01;;;;;;;0.00;0.00;;;8.60;75.90;;;;;;4799192;29;20684;-22
2023/12/19 03:15:28;;;;;;;0.00;0.00;;;8.60;75.90;;;;;;4800344;29;20224;-22
2023/12/19 03:17:57;;;;;;;0.00;0.00;;;8.70;76.00;;;;;;4800751;29;20208;-22
2023/12/19 03:20:25;;;;;;;0.00;0.00;;;8.70;76.00;;;;;;4800807;29;20213;-22
2023/12/19 03:22:52;;;;;;;0.00;0.00;;;8.70;75.90;;;;;;4798319;29;20227;-22
2023/12/19 03:25:22;;;;;;;0.00;0.00;;;8.70;76.00;;;;;;4800638;29;20659;-22
2023/12/19 03:27:51;;;;;;;0.00;0.00;;;8.70;76.00;;;;;;4800984;29;20316;-21
2023/12/19 03:30:18;;;;;;;0.00;0.00;;;8.70;75.90;;;;;;4798817;29;20288;-21
2023/12/19 03:32:47;;;;;;;0.00;0.00;;;8.70;75.90;;;;;;4799169;29;20220;-20
2023/12/19 03:35:17;;;;;;;0.00;0.00;;;8.70;75.90;;;;;;4797484;29;21124;-20
2023/12/19 03:37:47;;;;;;;0.00;0.00;;;8.70;76.00;;;;;;4782735;29;20623;-21
2023/12/19 03:40:16;;;;;;;0.00;0.00;;;8.70;76.00;;;;;;4798186;29;20213;-20
2023/12/19 03:42:44;;;;;;;0.00;0.00;;;8.70;76.00;;;;;;4798583;29;20317;-20
2023/12/19 03:45:11;;;;;;;0.00;0.00;;;8.70;75.90;;;;;;4796488;29;20201;-20
2023/12/19 03:47:40;;;;;;;0.00;0.00;;;8.70;76.00;;;;;;4797137;29;20284;-21
2023/12/19 03:50:08;;;;;;;0.00;0.00;;;8.70;76.00;;;;;;4796438;29;20213;-21
2023/12/19 03:52:38;;;;;;;0.00;0.00;;;8.70;76.10;;;;;;4801834;29;20216;-20
2023/12/19 03:55:10;;;;;;;0.00;0.00;;;8.70;76.10;;;;;;4815359;29;20209;-21
2023/12/19 03:57:37;;;;;;;0.00;0.00;;;8.70;76.20;;;;;;4801964;29;20217;-21
2023/12/19 04:00:08;;;;;;;0.00;0.00;;;8.70;76.20;;;;;;4800878;29;20220;-21
2023/12/19 04:02:38;;;;;;;0.00;0.00;;;8.70;76.20;;;;;;4801652;29;20236;-21
2023/12/19 04:05:07;;;;;;;0.00;0.00;;;8.70;76.20;;;;;;4799390;29;20945;-21
2023/12/19 04:07:40;;;;;;;0.00;0.00;;;8.70;76.20;;;;;;4798893;29;20243;-21
2023/12/19 04:10:10;;;;;;;0.00;0.00;;;8.80;76.30;;;;;;4798324;29;20223;-21
2023/12/19 04:12:42;;;;;;;0.00;0.00;;;8.80;76.20;;;;;;4811519;29;20217;-21
2023/12/19 04:15:10;;;;;;;0.00;0.00;;;8.80;76.20;;;;;;4796049;29;20931;-21
2023/12/19 04:17:40;;;;;;;0.00;0.00;;;8.80;76.10;;;;;;4781776;29;20669;-21
2023/12/19 04:20:13;;;;;;;0.00;0.00;;;8.80;76.20;;;;;;4798297;29;20221;-21
2023/12/19 04:22:41;;;;;;;0.00;0.00;;;8.80;76.20;;;;;;4798243;29;20231;-21
2023/12/19 04:25:10;;;;;;;0.00;0.00;;;8.80;76.30;;;;;;4797882;29;20213;-21
2023/12/19 04:27:39;;;;;;;0.00;0.00;;;8.80;76.30;;;;;;4798240;29;20225;-21
2023/12/19 04:30:07;;;;;;;0.00;0.00;;;8.80;76.30;;;;;;4797205;29;20280;-21
2023/12/19 04:32:40;;;;;;;0.00;0.00;;;8.80;76.30;;;;;;4798107;29;20248;-21
2023/12/19 04:35:08;;;;;;;0.00;0.00;;;8.80;76.30;;;;;;4796324;29;20575;-21
2023/12/19 04:37:38;;;;;;;0.00;0.00;;;8.80;76.30;;;;;;4797869;29;20256;-22
2023/12/19 04:40:07;;;;;;;0.00;0.00;;;8.80;76.30;;;;;;4796685;29;20230;-21
2023/12/19 04:42:37;;;;;;;0.00;0.00;;;8.80;76.30;;;;;;4781594;29;20682;-21
2023/12/19 04:45:07;;;;;;;0.00;0.00;;;8.90;76.40;;;;;;4796236;29;20217;-21
2023/12/19 04:47:37;;;;;;;0.00;0.00;;;8.90;76.30;;;;;;4796066;29;20236;-21
2023/12/19 04:50:04;;;;;;;0.00;0.00;;;8.90;76.40;;;;;;4799961;29;20591;-21
2023/12/19 04:52:32;;;;;;;0.00;0.00;;;8.90;76.30;;;;;;4801888;29;20300;-21
2023/12/19 04:54:59;;;;;;;0.00;0.00;;;8.90;76.40;;;;;;4803783;29;20208;-22
2023/12/19 04:57:28;;;;;;;0.00;0.00;;;8.80;76.30;;;;;;4803776;29;20249;-21
2023/12/19 04:59:58;;;;;;;0.00;0.00;;;8.90;76.40;;;;;;4803019;29;20612;-21
2023/12/19 05:02:30;;;;;;;0.00;0.00;;;8.90;76.40;;;;;;4802063;29;20722;-21
2023/12/19 05:05:00;;;;;;;0.00;0.00;;;8.90;76.40;;;;;;4801230;29;20224;-21
2023/12/19 05:07:32;;;;;;;0.00;0.00;;;8.90;76.50;;;;;;4799880;29;20239;-21
2023/12/19 05:09:59;;;;;;;0.00;0.00;;;8.90;76.50;;;;;;4799772;29;20640;-21
2023/12/19 05:12:27;;;;;;;0.00;0.00;;;8.90;76.50;;;;;;4803396;29;20201;-21
2023/12/19 05:14:54;;;;;;;0.00;0.00;;;8.90;76.50;;;;;;4802527;29;20293;-21
2023/12/19 05:17:24;;;;;;;0.00;0.00;;;8.90;76.50;;;;;;4800477;29;20217;-21
2023/12/19 05:19:55;;;;;;;0.00;0.00;;;8.90;76.40;;;;;;4799525;29;20667;-21
2023/12/19 05:22:25;;;;;;;0.00;0.00;;;8.90;76.40;;;;;;4799820;29;20229;-21
2023/12/19 05:24:54;;;;;;;0.00;0.00;;;9.00;76.40;;;;;;4800818;29;20602;-21
2023/12/19 05:27:22;;;;;;;0.00;0.00;;;9.00;76.50;;;;;;4799410;29;20320;-21
2023/12/19 05:29:54;;;;;;;0.00;0.00;;;9.00;76.40;;;;;;4800164;29;20204;-21
2023/12/19 05:32:21;;;;;;;0.00;0.00;;;9.00;76.40;;;;;;4799448;29;20225;-21
2023/12/19 05:34:48;;;;;;;0.00;0.00;;;9.00;76.50;;;;;;4799482;29;20221;-21
2023/12/19 05:37:18;;;;;;;0.00;0.00;;;9.00;76.50;;;;;;4799211;29;20251;-21
2023/12/19 05:39:49;;;;;;;0.00;0.00;;;9.00;76.60;;;;;;4801624;29;20681;-21
2023/12/19 05:42:18;;;;;;;0.00;0.00;;;9.00;76.50;;;;;;4804114;29;20205;-21
2023/12/19 05:44:46;;;;;;;0.00;0.00;;;9.00;76.50;;;;;;4803246;29;20213;-21
2023/12/19 05:47:13;;;;;;;0.00;0.00;;;9.00;76.40;;;;;;4787487;29;20228;-21
2023/12/19 05:49:42;;;;;;;0.00;0.00;;;9.10;76.50;;;;;;4787567;29;20575;-21
2023/12/19 05:52:12;;;;;;;0.00;0.00;;;9.10;76.50;;;;;;4802698;29;20295;-21
2023/12/19 05:54:42;;;;;;;0.00;0.00;;;9.10;76.50;;;;;;4800581;29;20544;-21
2023/12/19 05:57:09;;;;;;;0.00;0.00;;;9.10;76.60;;;;;;4799132;29;20213;-21
2023/12/19 05:59:39;;;;;;;0.00;0.00;;;9.10;76.50;;;;;;4799251;29;20627;-21
2023/12/19 06:02:06;;;;;;;0.00;0.00;;;9.10;76.50;;;;;;4802001;29;20692;-21
2023/12/19 06:04:34;;;;;;;0.00;0.00;;;9.10;76.50;;;;;;4801760;29;20213;-21
2023/12/19 06:07:07;;;;;;;0.00;0.00;;;9.10;76.50;;;;;;4802248;29;20219;-21
2023/12/19 06:09:34;;;;;;;0.00;0.00;;;9.10;76.50;;;;;;4793128;29;20235;-21
2023/12/19 06:12:02;;;;;;;0.00;0.00;;;9.10;76.50;;;;;;4793952;29;20855;-21
2023/12/19 06:14:36;;;;;;;0.00;0.00;;;9.10;76.50;;;;;;4788157;29;20681;-21
2023/12/19 06:17:06;;;;;;;0.00;0.00;;;9.10;76.60;;;;;;4794259;29;20228;-21
2023/12/19 06:19:35;;;;;;;0.00;0.00;;;9.20;76.60;;;;;;4791151;29;20293;-33
2023/12/19 06:22:05;;;;;;;0.00;0.00;;;9.20;76.60;;;;;;4796512;29;20243;-33
2023/12/19 06:24:32;;;;;;;0.00;0.00;;;9.20;76.70;;;;;;4793478;29;20213;-33
2023/12/19 06:27:02;;;;;;;0.00;0.00;;;9.20;76.60;;;;;;4800395;29;20543;-32
2023/12/19 06:29:29;;;;;;;0.00;0.00;;;9.20;77.40;;;;;;4797382;29;20288;-31
2023/12/19 06:31:57;;;;;;;0.00;0.00;;;9.20;76.60;;;;;;4797418;29;20207;-32
2023/12/19 06:34:31;;;;;;;0.00;0.00;;;9.20;76.60;;;;;;4799558;29;20229;-31
2023/12/19 06:36:58;;;;;;;0.00;0.00;;;9.30;76.60;;;;;;4802043;29;20572;-34
2023/12/19 06:39:28;;;;;;;0.00;0.00;;;9.30;76.60;;;;;;4800159;29;20201;-33
2023/12/19 06:41:55;;;;;;;0.00;0.00;;;9.30;76.60;;;;;;4797973;29;20224;-33
2023/12/19 06:44:25;;;;;;;0.00;0.00;;;9.30;76.60;;;;;;4797404;29;20211;-29
2023/12/19 06:46:55;;;;;;;0.00;0.00;;;9.30;76.70;;;;;;4799526;29;20213;-31
2023/12/19 06:49:24;;;;;;;0.00;0.00;;;9.30;76.60;;;;;;4800975;29;20205;-33
2023/12/19 06:51:55;;;;;;;0.00;0.00;;;9.30;76.60;;;;;;4802398;29;20239;-32
2023/12/19 06:54:25;;;;;;;0.00;0.00;;;9.30;76.60;;;;;;4799475;29;20315;-34
2023/12/19 06:56:54;;;;;;;0.00;0.00;;;9.40;76.70;;;;;;4795832;29;20695;-33
2023/12/19 06:59:21;;;;;;;0.00;0.00;;;9.40;76.70;;;;;;4783834;29;20220;-33
2023/12/19 07:01:53;;;;;;;0.00;0.00;;;9.40;76.70;;;;;;4783249;30;20209;-32
2023/12/19 07:04:23;;;;;;;0.00;0.00;;;9.40;76.60;;;;;;4784059;29;20218;-34
2023/12/19 07:06:50;;;;;;;0.00;0.00;;;9.40;76.60;;;;;;4781570;29;20587;-31
2023/12/19 07:09:22;;;;;;;0.00;0.00;;;9.40;76.60;;;;;;4785061;29;20232;-31
2023/12/19 07:11:55;;;;;;;0.00;0.00;;;9.40;76.60;;;;;;4786929;29;20207;-32
2023/12/19 07:14:24;;;;;;;0.00;0.00;;;9.40;76.60;;;;;;4788956;29;20218;-32
2023/12/19 07:16:58;;;;;;;0.00;0.00;;;9.40;76.60;;;;;;4786261;29;20216;-30
2023/12/19 07:19:30;;;;;;;0.00;0.00;;;9.40;77.40;;;;;;4779513;29;20228;-32
2023/12/19 07:21:57;;;;;;;0.00;0.00;;;9.40;76.60;;;;;;4792677;29;20221;-30
2023/12/19 07:24:30;;;;;;;0.00;0.00;;;9.40;76.60;;;;;;4788480;29;20206;-33
2023/12/19 07:27:00;;;;;;;0.00;0.00;;;9.50;76.80;;;;;;4787865;29;20217;-33
2023/12/19 07:29:31;;;;;;;0.00;0.00;;;9.50;76.70;;;;;;4800792;29;20276;-33
2023/12/19 07:32:01;;;;;;;0.00;0.00;;;9.50;76.70;;;;;;4794517;29;20213;-34
2023/12/19 07:34:31;;;;;;;0.00;0.00;;;9.50;76.70;;;;;;4800004;29;20236;-32
2023/12/19 07:37:01;;;;;;;0.00;0.00;;;9.50;76.70;;;;;;4800537;29;20757;-33
2023/12/19 07:39:30;;;;;;;0.00;0.00;;;9.50;76.70;;;;;;4793510;29;20210;-34
2023/12/19 07:41:57;;;;;;;0.00;0.00;;;9.50;76.80;;;;;;4787886;29;20779;-33
2023/12/19 07:44:25;;;;;;;0.00;0.00;;;9.50;76.80;;;;;;4791614;29;20211;-34
2023/12/19 07:46:52;;;;;;;0.00;0.00;;;9.50;76.80;;;;;;4795959;29;20233;-35
2023/12/19 07:49:24;;;;;;;0.00;0.00;;;9.60;76.80;;;;;;4787355;29;20606;-32
2023/12/19 07:51:53;;;;;;;0.00;0.00;;;9.60;76.70;;;;;;4799256;29;20221;-33
2023/12/19 07:54:23;;;;;;;0.00;0.00;;;9.60;76.70;;;;;;4795587;29;20502;-35
2023/12/19 07:56:52;;;;;;;0.00;0.00;;;9.60;76.70;;;;;;4773831;29;20453;-35
2023/12/19 07:59:22;;;;;;;0.00;0.00;;;9.60;76.60;;;;;;4786127;29;20231;-32
2023/12/19 08:01:49;;;;;;;0.00;0.00;;;9.60;76.60;;;;;;4786216;29;20217;-33
2023/12/19 08:04:21;;;;;;;0.00;0.00;;;9.60;76.70;;;;;;4789998;29;20308;-32
2023/12/19 08:06:51;;;;;;;0.00;0.00;;;9.60;76.70;;;;;;4786625;29;20424;-33
2023/12/19 08:09:20;;;;;;;0.00;0.00;;;9.60;76.70;;;;;;4796890;29;20911;-34
2023/12/19 08:11:49;;;;;;;0.00;0.00;;;9.60;76.70;;;;;;4798169;29;20202;-33
2023/12/19 08:14:16;;;;;;;0.00;0.00;;;9.60;76.70;;;;;;4796502;29;20221;-33
2023/12/19 08:16:48;;;;;;;0.00;0.00;;;9.60;76.60;;;;;;4796376;29;20206;-35
2023/12/19 08:19:21;;;;;;;0.00;0.00;;;9.60;76.70;;;;;;4779379;29;20967;-34
2023/12/19 08:21:54;;;;;;;0.00;0.00;;;9.60;76.70;;;;;;4796634;29;20256;-33
2023/12/19 08:24:25;;;;;;;0.00;0.00;;;9.60;76.70;;;;;;4791732;29;20213;-32
2023/12/19 08:26:57;;;;;;;0.00;0.00;;;9.60;76.70;;;;;;4797526;29;20213;-34
2023/12/19 08:29:28;;;;;;;0.00;0.00;;;9.60;76.70;;;;;;4796880;29;20767;-34
2023/12/19 08:31:56;;;;;;;0.00;0.00;;;9.70;76.80;;;;;;4792877;29;20224;-34
2023/12/19 08:34:23;;;;;;;0.00;0.00;;;9.70;76.80;;;;;;4784929;29;20695;-32
2023/12/19 08:36:55;;;;;;;0.00;0.00;;;9.70;76.80;;;;;;4797404;29;20657;-32
2023/12/19 08:39:22;;;;;;;0.00;0.00;;;9.70;76.80;;;;;;4798194;29;20664;-32
2023/12/19 08:41:49;;;;;;;0.00;0.00;;;9.70;76.80;;;;;;4798089;29;20863;-33
2023/12/19 08:44:16;;;;;;;0.00;0.00;;;9.70;76.80;;;;;;4797335;29;20569;-33
2023/12/19 08:46:47;;;;;;;0.00;0.00;;;9.70;76.80;;;;;;4794345;29;20236;-31
2023/12/19 08:49:16;;;;;;;0.00;0.00;;;9.70;76.80;;;;;;4787717;29;20595;-32
2023/12/19 08:51:50;;;;;;;0.00;0.00;;;9.70;76.90;;;;;;4793116;29;20259;-30
2023/12/19 08:54:19;;;;;;;0.00;0.00;;;9.80;76.90;;;;;;4797381;29;20312;-33
2023/12/19 08:56:49;;;;;;;0.00;0.00;;;9.80;76.80;;;;;;4796068;29;20225;-32
2023/12/19 08:59:19;;;;;;;0.00;0.00;;;9.80;76.80;;;;;;4794934;29;20215;-33
2023/12/19 09:01:50;;;;;;;0.00;0.00;;;9.80;76.80;;;;;;4790622;29;20201;-32
2023/12/19 09:04:18;;;;;;;0.00;0.00;;;9.80;76.90;;;;;;4799245;29;20279;-31
2023/12/19 09:06:52;;;;;;;0.00;0.00;;;9.80;76.90;;;;;;4799430;29;20328;-34
2023/12/19 09:09:20;;;;;;;0.00;0.00;;;9.80;76.90;;;;;;4799357;29;20228;-34
2023/12/19 09:11:47;;;;;;;0.00;0.00;;;9.80;76.90;;;;;;4797469;29;20312;-34
2023/12/19 09:14:17;;;;;;;0.00;0.00;;;9.80;77.00;;;;;;4781657;29;20248;-33
2023/12/19 09:16:49;;;;;;;0.00;0.00;;;9.80;76.90;;;;;;4790378;29;20864;-31
2023/12/19 09:19:19;;;;;;;0.00;0.00;;;9.80;76.90;;;;;;4799329;29;20274;-34
2023/12/19 09:21:51;;;;;;;0.00;0.00;;;9.80;77.00;;;;;;4781726;29;20213;-33
2023/12/19 09:24:26;;;;;;;0.00;0.00;;;9.80;77.30;;;;;;4797710;29;20253;-38
2023/12/19 09:26:57;;;;;;;0.00;0.00;;;9.80;77.00;;;;;;4793677;29;20300;-34
2023/12/19 09:29:27;;;;;;;0.00;0.00;;;9.90;77.10;;;;;;4787937;29;20573;-31
2023/12/19 09:32:00;;;;;;;0.00;0.00;;;9.80;77.00;;;;;;4791225;29;20221;-32
2023/12/19 09:34:30;;;;;;;0.00;0.00;;;9.90;77.10;;;;;;4785149;29;20839;-33
2023/12/19 09:36:59;;;;;;;0.00;0.00;;;9.90;77.10;;;;;;4791332;29;20318;-33
2023/12/19 09:39:32;;;;;;;0.00;0.00;;;9.90;77.20;;;;;;4802058;29;20233;-35
2023/12/19 09:42:03;;;;;;;0.00;0.00;;;9.90;77.10;;;;;;4800008;29;20224;-33
2023/12/19 09:44:32;;;;;;;0.00;0.00;;;9.90;77.10;;;;;;4791023;29;21116;-33
2023/12/19 09:47:05;;;;;;;0.00;0.00;;;9.90;77.10;;;;;;4783606;29;20213;-33
2023/12/19 09:49:39;;;;;;;0.00;0.00;;;9.90;77.20;;;;;;4788261;29;20241;-33
2023/12/19 09:52:12;;;;;;;0.00;0.00;;;9.90;77.20;;;;;;4800207;29;20198;-33
2023/12/19 09:54:42;;;;;;;0.00;0.00;;;9.90;77.30;;;;;;4800475;29;20209;-34
2023/12/19 09:57:13;;;;;;;0.00;0.00;;;10.00;77.30;;;;;;4795204;29;20227;-33
2023/12/19 09:59:44;;;;;;;0.00;0.00;;;10.00;77.30;;;;;;4784070;29;20660;-32
2023/12/19 10:02:24;;;;;;;0.00;0.00;;;10.00;77.30;;;;;;4781158;29;20202;-33
2023/12/19 10:04:57;;;;;;;0.00;0.00;;;10.00;77.40;;;;;;4782346;29;20214;-33
2023/12/19 10:07:29;;;;;;;0.00;0.00;;;10.00;77.50;;;;;;4797719;29;20944;-33
2023/12/19 10:09:59;;;;;;;0.00;0.00;;;10.10;77.40;;;;;;4797821;29;20316;-34
2023/12/19 10:12:30;;;;;;;0.00;0.00;;;10.10;77.40;;;;;;4793317;29;20228;-33
2023/12/19 10:15:15;;;;;;;0.00;0.00;;;10.10;77.40;;;;;;4801895;29;20627;-33
2023/12/19 10:18:11;;;;;;;0.00;0.00;;;10.10;77.40;;;;;;4801769;29;20229;-33
2023/12/19 10:20:44;;;;;;;0.00;0.00;;;10.10;77.50;;;;;;4800133;29;20301;-33
2023/12/19 10:23:11;;;;;;;0.00;0.00;;;10.20;77.50;;;;;;4789573;29;20700;-33
2023/12/19 10:25:40;;;;;;;0.00;0.00;;;10.20;77.50;;;;;;4797985;29;20564;-33
2023/12/19 10:28:13;;;;;;;0.00;0.00;;;10.20;77.40;;;;;;4800667;29;20217;-33
2023/12/19 10:30:45;;;;;;;0.00;0.00;;;10.10;77.40;;;;;;4795791;29;20297;-33
2023/12/19 10:33:16;;;;;;;0.00;0.00;;;10.20;77.40;;;;;;4795939;29;20358;-32
2023/12/19 10:35:46;;;;;;;0.00;0.00;;;10.20;77.40;;;;;;4785591;29;20213;-33
2023/12/19 10:38:15;;;;;;;0.00;0.00;;;10.20;77.50;;;;;;4799046;29;20446;-33
2023/12/19 10:40:43;;;;;;;0.00;0.00;;;10.20;77.40;;;;;;4799154;29;20628;-34
2023/12/19 10:43:13;;;;;;;0.00;0.00;;;10.20;77.50;;;;;;4801084;29;20243;-33
2023/12/19 10:45:44;;;;;;;0.00;0.00;;;10.20;77.40;;;;;;4793643;29;20768;-33
2023/12/19 10:48:12;;;;;;;0.00;0.00;;;10.20;77.40;;;;;;4788825;29;20221;-32
2023/12/19 10:50:39;;;;;;;0.00;0.00;;;10.20;77.40;;;;;;4798511;29;20289;-34
2023/12/19 10:53:09;;;;;;;0.00;0.00;;;10.20;77.40;;;;;;4801810;29;20313;-32
2023/12/19 10:55:46;;;;;;;0.00;0.00;;;10.20;77.50;;;;;;4797783;29;20661;-33
2023/12/19 10:58:20;;;;;;;0.00;0.00;;;10.20;77.40;;;;;;4789420;29;20220;-34
2023/12/19 11:00:55;;;;;;;0.00;0.00;;;10.20;77.50;;;;;;4791667;29;20220;-36
2023/12/19 11:03:33;;;;;;;0.00;0.00;;;10.20;77.50;;;;;;4797358;29;20743;-33
2023/12/19 11:06:07;;;;;;;0.00;0.00;;;10.20;77.60;;;;;;4790035;29;20648;-32
2023/12/19 11:08:39;;;;;;;0.00;0.00;;;10.20;77.60;;;;;;4797693;29;20317;-35
2023/12/19 11:11:24;;;;;;;0.00;0.00;;;10.20;77.60;;;;;;4796829;29;20229;-34
2023/12/19 11:13:54;;;;;;;0.00;0.00;;;10.20;77.60;;;;;;4798824;29;20204;-36
2023/12/19 11:16:51;;;;;;;0.00;0.00;;;10.20;77.50;;;;;;4800223;29;20224;-37
2023/12/19 11:19:22;;;;;;;0.00;0.00;;;10.20;77.60;;;;;;4794712;29;20774;-33
2023/12/19 11:21:54;;;;;;;0.00;0.00;;;10.30;77.60;;;;;;4800247;29;20745;-36
2023/12/19 11:24:43;;;;;;;0.00;0.00;;;10.30;77.70;;;;;;4799311;29;20588;-34
2023/12/19 11:27:25;;;;;;;0.00;0.00;;;10.30;77.70;;;;;;4797105;29;20228;-34
2023/12/19 11:29:58;;;;;;;0.00;0.00;;;10.30;77.80;;;;;;4769028;29;20226;-34
2023/12/19 11:32:31;;;;;;;0.00;0.00;;;10.30;77.70;;;;;;4785695;29;20205;-37
2023/12/19 11:35:09;;;;;;;0.00;0.00;;;10.30;77.70;;;;;;4789015;29;20201;-34
2023/12/19 11:37:43;;;;;;;0.00;0.00;;;10.40;77.80;;;;;;4781456;29;20341;-35
2023/12/19 11:40:48;;;;;;;0.00;0.00;;;10.40;77.80;;;;;;4786961;29;20693;-35
2023/12/19 11:43:27;;;;;;;0.00;0.00;;;10.40;77.90;;;;;;4788390;29;20225;-33
2023/12/19 11:46:03;;;;;;;0.00;0.00;;;10.40;77.80;;;;;;4783366;29;20222;-35
2023/12/19 11:48:56;;;;;;;0.00;0.00;;;10.40;77.80;;;;;;4795971;29;20701;-35
2023/12/19 11:51:48;;;;;;;0.00;0.00;;;10.40;78.60;;;;;;4782872;29;20883;-37
2023/12/19 11:54:17;;;;;;;0.00;0.00;;;10.40;77.90;;;;;;4784810;29;20256;-33
2023/12/19 11:56:44;;;;;;;0.00;0.00;;;10.40;77.80;;;;;;4785814;29;20309;-35
2023/12/19 11:59:16;;;;;;;0.00;0.00;;;10.50;78.00;;;;;;4798038;29;20959;-34
2023/12/19 12:01:48;;;;;;;0.00;0.00;;;10.50;77.90;;;;;;4799094;29;20217;-34
2023/12/19 12:04:19;;;;;;;0.00;0.00;;;10.50;77.90;;;;;;4797272;29;20204;-34
2023/12/19 12:06:47;;;;;;;0.00;0.00;;;10.50;77.90;;;;;;4787865;29;20220;-33
2023/12/19 12:09:20;;;;;;;0.00;0.00;;;10.50;77.90;;;;;;4788290;29;20899;-34
2023/12/19 12:11:51;;;;;;;0.00;0.00;;;10.60;78.00;;;;;;4794405;29;20316;-31
2023/12/19 12:14:21;;;;;;;0.00;0.00;;;10.60;78.00;;;;;;4782882;29;20202;-33
2023/12/19 12:16:52;;;;;;;0.00;0.00;;;10.60;77.90;;;;;;4792783;29;20205;-36
2023/12/19 12:19:22;;;;;;;0.00;0.00;;;10.60;78.00;;;;;;4782804;29;20221;-35
2023/12/19 12:21:54;;;;;;;0.00;0.00;;;10.60;77.90;;;;;;4791163;29;20217;-37
2023/12/19 12:24:23;;;;;;;0.00;0.00;;;10.60;77.90;;;;;;4795908;29;20209;-36
2023/12/19 12:27:12;;;;;;;0.00;0.00;;;10.60;77.90;;;;;;4792139;29;20235;-35
2023/12/19 12:29:42;;;;;;;0.00;0.00;;;10.70;78.00;;;;;;4798713;29;20251;-36
2023/12/19 12:32:10;;;;;;;0.00;0.00;;;10.70;78.00;;;;;;4795014;29;20209;-35
2023/12/19 12:34:38;;;;;;;0.00;0.00;;;10.70;78.00;;;;;;4793465;29;20209;-36
2023/12/19 12:37:05;;;;;;;0.00;0.00;;;10.70;78.10;;;;;;4793141;29;20329;-37
2023/12/19 12:39:35;;;;;;;0.00;0.00;;;10.70;78.70;;;;;;4780087;29;20217;-34
2023/12/19 12:42:03;;;;;;;0.00;0.00;;;10.70;77.90;;;;;;4782629;29;20285;-33
2023/12/19 12:44:31;;;;;;;0.00;0.00;;;10.70;77.90;;;;;;4783493;29;20310;-32
2023/12/19 12:46:59;;;;;;;0.00;0.00;;;10.70;77.90;;;;;;4782736;29;20232;-31
2023/12/19 12:49:29;;;;;;;0.00;0.00;;;10.70;78.00;;;;;;4796647;29;20224;-32
2023/12/19 12:51:59;;;;;;;0.00;0.00;;;10.80;78.10;;;;;;4786430;29;20320;-36
2023/12/19 12:54:32;;;;;;;0.00;0.00;;;10.80;78.00;;;;;;4795288;29;20274;-31
2023/12/19 12:57:12;;;;;;;0.00;0.00;;;10.80;78.00;;;;;;4778592;30;20216;-33
2023/12/19 12:59:41;;;;;;;0.00;0.00;;;10.80;78.00;;;;;;4793690;29;20189;-32
2023/12/19 13:02:11;;;;;;;0.00;0.00;;;10.80;78.00;;;;;;4789666;29;20227;-34
2023/12/19 13:04:38;;;;;;;0.00;0.00;;;10.80;78.00;;;;;;4794052;29;20273;-35
2023/12/19 13:07:08;;;;;;;0.00;0.00;;;10.80;78.00;;;;;;4790386;29;20216;-30
2023/12/19 13:09:37;;;;;;;0.00;0.00;;;10.80;78.00;;;;;;4778034;30;20344;-32
2023/12/19 13:12:05;;;;;;;0.00;0.00;;;10.80;78.00;;;;;;4782607;29;20245;-32